createdAt,value
2019-02-08T00:00:45.352Z,11.85
2019-02-08T00:03:12.737Z,10.48
2019-02-08T00:05:40.024Z,10.93
2019-02-08T00:08:07.071Z,11.85
2019-02-08T00:10:34.321Z,9.95
2019-02-08T00:13:01.349Z,10.35
2019-02-08T00:15:28.524Z,9.95
2019-02-08T00:17:55.530Z,10.80
2019-02-08T00:20:22.825Z,10.05
2019-02-08T00:22:49.896Z,10.00
2019-02-08T00:25:17.259Z,9.55
2019-02-08T00:27:44.383Z,10.48
2019-02-08T00:30:15.464Z,9.48
2019-02-08T00:32:42.464Z,9.95
2019-02-08T00:35:09.909Z,10.40
2019-02-08T00:37:36.996Z,9.78
2019-02-08T00:40:06.234Z,9.80
2019-02-08T00:42:33.239Z,9.28
2019-02-08T00:45:00.253Z,9.88
2019-02-08T00:47:27.168Z,8.43
2019-02-08T00:49:55.412Z,9.43
2019-02-08T00:52:22.541Z,8.90
2019-02-08T00:54:49.512Z,8.23
2019-02-08T00:57:16.760Z,8.38
2019-02-08T00:59:43.942Z,8.15
2019-02-08T01:02:10.961Z,7.75
2019-02-08T01:04:38.069Z,8.18
2019-02-08T01:07:05.249Z,8.63
2019-02-08T01:09:32.777Z,8.83
2019-02-08T01:11:59.931Z,7.40
2019-02-08T01:14:26.978Z,8.28
2019-02-08T01:16:55.085Z,7.28
2019-02-08T01:19:21.985Z,7.62
2019-02-08T01:21:48.951Z,7.42
2019-02-08T01:24:15.992Z,7.70
2019-02-08T01:26:43.021Z,7.60
2019-02-08T01:29:10.068Z,7.58
2019-02-08T01:31:37.097Z,7.42
2019-02-08T01:34:04.655Z,6.90
2019-02-08T01:36:33.367Z,7.65
2019-02-08T01:39:00.386Z,7.50
2019-02-08T01:41:28.472Z,7.80
2019-02-08T01:43:55.461Z,8.10
2019-02-08T01:46:22.465Z,7.20
2019-02-08T01:48:49.464Z,6.97
2019-02-08T01:51:16.429Z,6.60
2019-02-08T01:53:48.517Z,7.62
2019-02-08T01:56:12.270Z,7.45
2019-02-08T01:58:39.328Z,8.40
2019-02-08T02:01:08.159Z,7.92
2019-02-08T02:03:35.105Z,8.08
2019-02-08T02:06:02.165Z,8.28
2019-02-08T02:08:29.219Z,7.72
2019-02-08T02:10:56.130Z,7.85
2019-02-08T02:13:23.285Z,7.22
2019-02-08T02:15:50.282Z,8.28
2019-02-08T02:18:17.374Z,8.00
2019-02-08T02:20:46.233Z,7.40
2019-02-08T02:23:14.777Z,7.65
2019-02-08T02:25:41.748Z,8.10
2019-02-08T02:28:08.990Z,7.75
2019-02-08T02:30:36.396Z,8.40
2019-02-08T02:33:05.468Z,8.88
2019-02-08T02:35:32.400Z,8.15
2019-02-08T02:38:01.257Z,8.25
2019-02-08T02:40:30.113Z,7.75
2019-02-08T02:42:57.089Z,8.45
2019-02-08T02:45:26.717Z,8.90
2019-02-08T02:47:53.837Z,9.33
2019-02-08T02:50:20.978Z,9.40
2019-02-08T02:52:48.062Z,8.83
2019-02-08T02:55:15.204Z,7.30
2019-02-08T02:57:42.437Z,7.00
2019-02-08T03:00:15.744Z,8.03
2019-02-08T03:02:42.788Z,7.87
2019-02-08T03:05:09.936Z,8.38
2019-02-08T03:07:36.951Z,7.60
2019-02-08T03:10:05.164Z,7.12
2019-02-08T03:12:32.093Z,7.97
2019-02-08T03:14:59.126Z,7.58
2019-02-08T03:17:26.116Z,8.58
2019-02-08T03:19:53.053Z,6.97
2019-02-08T03:22:19.944Z,7.17
2019-02-08T03:24:47.746Z,7.05
2019-02-08T03:27:14.647Z,7.67
2019-02-08T03:29:41.656Z,7.97
2019-02-08T03:32:08.564Z,8.13
2019-02-08T03:34:35.466Z,7.65
2019-02-08T03:37:02.475Z,8.68
2019-02-08T03:39:29.397Z,8.78
2019-02-08T03:41:56.380Z,8.40
2019-02-08T03:44:23.364Z,8.68
2019-02-08T03:46:50.483Z,8.78
2019-02-08T03:49:17.403Z,9.33
2019-02-08T03:51:44.434Z,8.48
2019-02-08T03:54:11.395Z,7.47
2019-02-08T03:56:38.452Z,8.20
2019-02-08T03:59:05.365Z,8.18
2019-02-08T04:01:32.289Z,7.62
2019-02-08T04:04:13.972Z,8.15
2019-02-08T04:06:41.432Z,8.15
2019-02-08T04:09:09.020Z,7.80
2019-02-08T04:11:36.455Z,8.40
2019-02-08T04:14:04.009Z,8.25
2019-02-08T04:16:30.954Z,8.60
2019-02-08T04:18:57.929Z,8.80
2019-02-08T04:21:24.866Z,9.10
2019-02-08T04:23:51.895Z,9.35
2019-02-08T04:26:19.909Z,8.28
2019-02-08T04:28:46.988Z,8.35
2019-02-08T04:31:13.961Z,8.50
2019-02-08T04:33:41.000Z,9.88
2019-02-08T04:36:07.953Z,9.53
2019-02-08T04:38:34.913Z,8.85
2019-02-08T04:41:01.872Z,8.35
2019-02-08T04:43:30.716Z,8.40
2019-02-08T04:45:57.705Z,7.95
2019-02-08T04:48:24.682Z,9.33
2019-02-08T04:50:51.564Z,9.10
2019-02-08T04:53:18.495Z,9.25
2019-02-08T04:55:46.536Z,8.45
2019-02-08T04:58:13.476Z,8.68
2019-02-08T05:00:40.381Z,9.48
2019-02-08T05:03:07.346Z,8.58
2019-02-08T05:05:34.324Z,9.30
2019-02-08T05:08:01.462Z,8.60
2019-02-08T05:10:29.885Z,8.75
2019-02-08T05:12:56.938Z,9.10
2019-02-08T05:15:23.920Z,9.20
2019-02-08T05:17:51.025Z,8.80
2019-02-08T05:20:19.821Z,8.55
2019-02-08T05:22:48.961Z,9.10
2019-02-08T05:25:17.898Z,8.85
2019-02-08T05:27:44.836Z,9.10
2019-02-08T05:30:23.658Z,9.13
2019-02-08T05:32:50.537Z,9.00
2019-02-08T05:35:17.512Z,8.15
2019-02-08T05:37:44.409Z,8.83
2019-02-08T05:40:11.678Z,9.00
2019-02-08T05:42:38.676Z,8.30
2019-02-08T05:45:07.569Z,9.00
2019-02-08T05:47:34.515Z,8.78
2019-02-08T05:50:01.483Z,9.33
2019-02-08T05:52:28.519Z,9.73
2019-02-08T05:54:55.441Z,8.25
2019-02-08T05:57:22.469Z,9.98
2019-02-08T05:59:49.376Z,9.33
2019-02-08T06:02:16.259Z,9.58
2019-02-08T06:04:43.599Z,9.93
2019-02-08T06:07:10.768Z,10.43
2019-02-08T06:09:37.765Z,9.93
2019-02-08T06:12:05.087Z,10.00
2019-02-08T06:14:32.012Z,9.75
2019-02-08T06:16:59.002Z,11.50
2019-02-08T06:19:25.960Z,11.33
2019-02-08T06:21:53.004Z,12.80
2019-02-08T06:24:20.032Z,14.18
2019-02-08T06:26:47.034Z,13.08
2019-02-08T06:29:14.318Z,12.30
2019-02-08T06:31:41.420Z,14.35
2019-02-08T06:34:09.197Z,14.60
2019-02-08T06:36:36.212Z,12.68
2019-02-08T06:39:07.093Z,12.95
2019-02-08T06:41:34.046Z,11.55
2019-02-08T06:44:01.005Z,13.13
2019-02-08T06:46:27.934Z,11.30
2019-02-08T06:48:54.930Z,10.88
2019-02-08T06:51:21.876Z,10.60
2019-02-08T06:53:48.841Z,11.57
2019-02-08T06:56:34.431Z,10.63
2019-02-08T06:59:03.230Z,11.40
2019-02-08T07:01:32.024Z,10.63
2019-02-08T07:04:16.216Z,12.73
2019-02-08T07:06:58.098Z,14.45
2019-02-08T07:09:26.940Z,11.55
2019-02-08T07:11:55.762Z,9.28
2019-02-08T07:14:24.631Z,11.68
2019-02-08T07:17:13.893Z,10.18
2019-02-08T07:19:48.508Z,10.65
2019-02-08T07:22:27.653Z,11.48
2019-02-08T07:25:18.685Z,10.70
2019-02-08T07:27:48.306Z,10.00
2019-02-08T07:30:35.592Z,11.70
2019-02-08T07:33:07.749Z,12.18
2019-02-08T07:35:36.956Z,10.58
2019-02-08T07:38:06.129Z,10.45
2019-02-08T07:40:49.957Z,10.10
2019-02-08T07:43:27.834Z,11.30
2019-02-08T07:46:07.897Z,10.35
2019-02-08T07:48:45.900Z,10.90
2019-02-08T07:51:31.545Z,10.70
2019-02-08T07:54:17.355Z,9.93
2019-02-08T07:56:46.248Z,10.48
2019-02-08T07:59:25.154Z,11.20
2019-02-08T08:02:12.233Z,10.03
2019-02-08T08:04:44.302Z,10.70
2019-02-08T08:07:13.804Z,10.20
2019-02-08T08:09:43.827Z,9.65
2019-02-08T08:12:24.845Z,10.28
2019-02-08T08:15:00.040Z,10.35
2019-02-08T08:17:28.985Z,9.55
2019-02-08T08:20:03.819Z,10.15
2019-02-08T08:22:51.116Z,9.83
2019-02-08T08:25:33.871Z,10.95
2019-02-08T08:27:59.945Z,11.53
2019-02-08T08:30:41.778Z,10.23
2019-02-08T08:33:18.037Z,10.88
2019-02-08T08:36:09.834Z,13.83
2019-02-08T08:39:14.618Z,13.50
2019-02-08T08:42:17.449Z,13.85
2019-02-08T08:45:18.595Z,14.68
2019-02-08T08:48:22.021Z,13.18
2019-02-08T08:51:42.960Z,12.60
2019-02-08T08:54:46.786Z,6.33
2019-02-08T08:57:58.648Z,6.65
2019-02-08T09:01:07.686Z,7.22
2019-02-08T09:04:12.195Z,7.17
2019-02-08T09:07:16.098Z,6.65
2019-02-08T09:10:20.437Z,6.55
2019-02-08T09:13:35.470Z,5.80
2019-02-08T09:16:41.386Z,6.83
2019-02-08T09:19:42.691Z,7.33
2019-02-08T09:22:51.323Z,6.20
2019-02-08T09:25:59.686Z,6.67
2019-02-08T09:29:11.978Z,6.05
2019-02-08T09:32:23.415Z,7.03
2019-02-08T09:35:38.430Z,6.47
2019-02-08T09:38:45.971Z,4.70
2019-02-08T09:41:42.820Z,4.67
2019-02-08T09:44:53.919Z,4.00
2019-02-08T09:47:57.357Z,3.72
2019-02-08T09:51:12.067Z,3.58
2019-02-08T09:54:48.126Z,4.22
2019-02-08T09:57:41.638Z,3.50
2019-02-08T10:00:44.903Z,3.58
2019-02-08T10:03:56.845Z,3.67
2019-02-08T10:07:16.670Z,3.33
2019-02-08T10:10:24.052Z,3.92
2019-02-08T10:13:37.869Z,3.15
2019-02-08T10:16:59.585Z,3.55
2019-02-08T10:20:01.146Z,3.45
2019-02-08T10:23:21.522Z,4.25
2019-02-08T10:26:44.656Z,3.10
2019-02-08T10:29:47.828Z,3.90
2019-02-08T10:33:04.758Z,3.50
2019-02-08T10:36:11.247Z,4.35
2019-02-08T10:39:16.207Z,3.62
2019-02-08T10:42:20.168Z,3.12
2019-02-08T10:45:37.933Z,3.40
2019-02-08T10:48:42.989Z,4.10
2019-02-08T10:52:24.694Z,3.62
2019-02-08T10:55:23.216Z,3.35
2019-02-08T10:58:37.554Z,3.72
2019-02-08T11:01:42.163Z,3.30
2019-02-08T11:04:54.376Z,3.05
2019-02-08T11:08:02.236Z,3.85
2019-02-08T11:11:15.216Z,3.37
2019-02-08T11:14:22.588Z,3.85
2019-02-08T11:17:22.086Z,3.00
2019-02-08T11:19:54.002Z,3.08
2019-02-08T11:22:21.070Z,3.33
2019-02-08T11:24:47.962Z,3.50
2019-02-08T11:27:14.926Z,3.37
2019-02-08T11:29:41.951Z,3.37
2019-02-08T11:32:09.008Z,3.05
2019-02-08T11:34:36.031Z,3.52
2019-02-08T11:37:03.460Z,3.00
2019-02-08T11:39:30.383Z,2.80
2019-02-08T11:41:57.473Z,3.33
2019-02-08T11:44:24.481Z,3.40
2019-02-08T11:46:51.515Z,3.50
2019-02-08T11:49:18.581Z,3.37
2019-02-08T11:51:45.571Z,2.90
2019-02-08T11:54:12.779Z,3.40
2019-02-08T11:56:39.859Z,3.20
2019-02-08T11:59:06.828Z,3.83
2019-02-08T12:01:35.761Z,2.70
2019-02-08T12:04:03.587Z,2.90
2019-02-08T12:06:30.638Z,3.50
2019-02-08T12:08:57.666Z,3.60
2019-02-08T12:11:24.714Z,2.85
2019-02-08T12:13:51.641Z,3.55
2019-02-08T12:16:19.867Z,3.10
2019-02-08T12:18:46.852Z,3.33
2019-02-08T12:21:14.479Z,3.30
2019-02-08T12:23:41.602Z,3.60
2019-02-08T12:26:08.656Z,3.10
2019-02-08T12:28:35.964Z,2.75
2019-02-08T12:31:03.626Z,2.58
2019-02-08T12:33:30.669Z,3.35
2019-02-08T12:35:58.756Z,3.22
2019-02-08T12:38:26.147Z,3.20
2019-02-08T12:40:53.256Z,3.50
2019-02-08T12:43:23.101Z,2.80
2019-02-08T12:45:50.174Z,4.30
2019-02-08T12:48:17.329Z,2.80
2019-02-08T12:50:44.584Z,2.80
2019-02-08T12:53:11.818Z,3.50
2019-02-08T12:55:38.904Z,3.37
2019-02-08T12:58:05.956Z,3.37
2019-02-08T13:00:33.074Z,2.85
2019-02-08T13:03:00.104Z,2.98
2019-02-08T13:05:27.388Z,2.87
2019-02-08T13:07:54.477Z,6.40
2019-02-08T13:10:22.066Z,3.33
2019-02-08T13:12:49.324Z,3.47
2019-02-08T13:15:16.811Z,3.30
2019-02-08T13:17:44.880Z,2.75
2019-02-08T13:20:14.391Z,3.17
2019-02-08T13:22:41.421Z,3.02
2019-02-08T13:25:08.790Z,2.87
2019-02-08T13:27:35.720Z,3.33
2019-02-08T13:30:05.976Z,3.33
2019-02-08T13:32:33.033Z,2.83
2019-02-08T13:34:59.922Z,3.08
2019-02-08T13:37:26.892Z,3.00
2019-02-08T13:39:53.846Z,2.85
2019-02-08T13:42:20.799Z,3.58
2019-02-08T13:44:47.731Z,2.60
2019-02-08T13:47:14.708Z,3.05
2019-02-08T13:49:41.687Z,3.02
2019-02-08T13:52:08.748Z,2.92
2019-02-08T13:54:35.721Z,3.15
2019-02-08T13:57:03.354Z,2.62
2019-02-08T13:59:30.548Z,2.90
2019-02-08T14:01:57.566Z,3.00
2019-02-08T14:04:24.517Z,3.35
2019-02-08T14:06:51.528Z,3.33
2019-02-08T14:09:18.877Z,2.95
2019-02-08T14:11:45.878Z,2.90
2019-02-08T14:14:12.897Z,2.55
2019-02-08T14:16:39.982Z,2.60
2019-02-08T14:19:06.977Z,2.83
2019-02-08T14:21:33.870Z,2.20
2019-02-08T14:24:00.869Z,2.12
2019-02-08T14:26:27.824Z,1.82
2019-02-08T14:28:54.767Z,2.35
2019-02-08T14:31:21.704Z,2.08
2019-02-08T14:33:48.751Z,2.80
2019-02-08T14:36:15.737Z,2.27
2019-02-08T14:38:42.673Z,2.02
2019-02-08T14:41:09.645Z,2.00
2019-02-08T14:43:36.651Z,2.22
2019-02-08T14:46:03.757Z,2.30
2019-02-08T14:48:30.825Z,2.45
2019-02-08T14:50:57.765Z,3.98
2019-02-08T14:53:24.666Z,2.37
2019-02-08T14:55:51.621Z,2.80
2019-02-08T14:58:18.529Z,2.10
2019-02-08T15:00:45.541Z,2.10
2019-02-08T15:03:12.515Z,2.20
2019-02-08T15:05:39.545Z,2.80
2019-02-08T15:08:06.557Z,2.15
2019-02-08T15:10:36.294Z,2.15
2019-02-08T15:13:03.389Z,1.87
2019-02-08T15:15:30.419Z,2.80
2019-02-08T15:17:57.345Z,2.25
2019-02-08T15:20:28.508Z,2.40
2019-02-08T15:22:55.552Z,1.98
2019-02-08T15:25:22.599Z,2.22
2019-02-08T15:27:49.496Z,2.52
2019-02-08T15:30:21.660Z,2.40
2019-02-08T15:32:48.668Z,2.10
2019-02-08T15:35:17.212Z,1.80
2019-02-08T15:37:45.697Z,2.37
2019-02-08T15:40:16.784Z,2.20
2019-02-08T15:42:45.091Z,2.85
2019-02-08T15:45:14.639Z,4.60
2019-02-08T15:47:41.667Z,2.83
2019-02-08T15:50:10.486Z,2.80
2019-02-08T15:52:37.495Z,3.33
2019-02-08T15:55:06.521Z,2.90
2019-02-08T15:57:33.445Z,4.37
2019-02-08T16:00:00.614Z,2.90
2019-02-08T16:02:27.548Z,2.77
2019-02-08T16:04:54.524Z,2.47
2019-02-08T16:07:21.908Z,2.20
2019-02-08T16:09:49.165Z,2.98
2019-02-08T16:12:16.552Z,2.55
2019-02-08T16:14:44.224Z,2.77
2019-02-08T16:17:11.564Z,2.20
2019-02-08T16:19:38.654Z,2.70
2019-02-08T16:22:05.953Z,2.83
2019-02-08T16:24:32.922Z,2.65
2019-02-08T16:26:59.816Z,2.65
2019-02-08T16:29:26.829Z,2.17
2019-02-08T16:31:53.751Z,2.50
2019-02-08T16:34:20.794Z,2.85
2019-02-08T16:36:47.861Z,2.33
2019-02-08T16:39:14.881Z,2.67
2019-02-08T16:41:41.835Z,2.70
2019-02-08T16:44:09.283Z,3.67
2019-02-08T16:46:36.289Z,2.77
2019-02-08T16:49:03.606Z,2.40
2019-02-08T16:51:30.654Z,1.82
2019-02-08T16:53:57.676Z,2.00
2019-02-08T16:56:24.756Z,2.00
2019-02-08T16:58:51.650Z,2.30
2019-02-08T17:01:18.916Z,1.80
2019-02-08T17:03:45.960Z,1.72
2019-02-08T17:06:13.013Z,1.90
2019-02-08T17:08:39.930Z,1.90
2019-02-08T17:11:06.965Z,2.30
2019-02-08T17:13:33.984Z,2.00
2019-02-08T17:16:01.271Z,4.05
2019-02-08T17:18:28.314Z,2.15
2019-02-08T17:20:55.389Z,6.62
2019-02-08T17:23:22.368Z,4.47
2019-02-08T17:25:49.396Z,5.62
2019-02-08T17:28:16.537Z,6.78
2019-02-08T17:30:43.919Z,2.52
2019-02-08T17:33:10.958Z,2.75
2019-02-08T17:35:38.175Z,1.98
2019-02-08T17:38:05.094Z,2.30
2019-02-08T17:40:32.671Z,1.82
2019-02-08T17:42:59.697Z,2.05
2019-02-08T17:45:26.751Z,2.08
2019-02-08T17:47:55.798Z,2.00
2019-02-08T17:50:23.941Z,1.90
2019-02-08T17:52:50.984Z,3.55
2019-02-08T17:55:19.243Z,11.38
2019-02-08T17:57:46.287Z,6.05
2019-02-08T18:00:23.476Z,2.00
2019-02-08T18:02:50.389Z,1.90
2019-02-08T18:05:17.449Z,1.77
2019-02-08T18:07:44.491Z,1.70
2019-02-08T18:10:14.456Z,2.65
2019-02-08T18:12:44.500Z,2.40
2019-02-08T18:15:18.935Z,2.60
2019-02-08T18:17:51.041Z,2.17
2019-02-08T18:20:32.769Z,2.80
2019-02-08T18:22:59.934Z,2.70
2019-02-08T18:25:26.869Z,3.05
2019-02-08T18:27:53.822Z,2.33
2019-02-08T18:30:21.123Z,2.67
2019-02-08T18:32:48.139Z,2.52
2019-02-08T18:35:15.203Z,2.52
2019-02-08T18:37:42.458Z,2.40
2019-02-08T18:40:11.871Z,2.60
2019-02-08T18:42:38.870Z,2.70
2019-02-08T18:45:08.016Z,2.27
2019-02-08T18:47:35.058Z,2.35
2019-02-08T18:50:02.648Z,3.00
2019-02-08T18:52:29.572Z,2.77
2019-02-08T18:54:56.533Z,3.10
2019-02-08T18:57:23.595Z,3.90
2019-02-08T18:59:50.780Z,6.60
2019-02-08T19:02:17.874Z,4.53
2019-02-08T19:04:44.937Z,7.47
2019-02-08T19:07:12.201Z,5.03
2019-02-08T19:09:39.250Z,6.45
2019-02-08T19:12:06.324Z,5.47
2019-02-08T19:14:33.376Z,4.92
2019-02-08T19:17:00.316Z,5.20
2019-02-08T19:19:27.330Z,4.60
2019-02-08T19:21:54.367Z,11.95
2019-02-08T19:24:21.362Z,4.45
2019-02-08T19:26:48.500Z,5.33
2019-02-08T19:29:15.524Z,4.60
2019-02-08T19:31:42.618Z,3.80
2019-02-08T19:34:09.565Z,5.33
2019-02-08T19:36:36.501Z,3.42
2019-02-08T19:39:06.596Z,4.03
2019-02-08T19:41:33.531Z,3.30
2019-02-08T19:44:00.542Z,4.10
2019-02-08T19:46:27.645Z,3.52
2019-02-08T19:48:54.619Z,5.35
2019-02-08T19:51:21.596Z,3.95
2019-02-08T19:53:48.603Z,5.10
2019-02-08T19:56:15.771Z,4.00
2019-02-08T19:58:42.705Z,3.17
2019-02-08T20:01:09.802Z,3.60
2019-02-08T20:03:36.820Z,3.77
2019-02-08T20:06:04.073Z,3.05
2019-02-08T20:08:31.008Z,3.12
2019-02-08T20:10:58.009Z,4.25
2019-02-08T20:13:24.989Z,4.70
2019-02-08T20:15:52.105Z,3.22
2019-02-08T20:18:19.413Z,3.80
2019-02-08T20:20:46.380Z,3.95
2019-02-08T20:23:13.456Z,5.33
2019-02-08T20:25:40.592Z,3.98
2019-02-08T20:28:07.639Z,5.45
2019-02-08T20:30:34.976Z,5.00
2019-02-08T20:33:03.569Z,4.85
2019-02-08T20:35:31.031Z,3.85
2019-02-08T20:37:58.623Z,4.30
2019-02-08T20:40:33.603Z,4.80
2019-02-08T20:43:00.643Z,3.37
2019-02-08T20:45:29.474Z,3.25
2019-02-08T20:47:58.125Z,3.17
2019-02-08T20:50:25.572Z,3.90
2019-02-08T20:52:53.793Z,3.00
2019-02-08T20:55:26.204Z,5.50
2019-02-08T20:57:58.603Z,3.22
2019-02-08T21:00:31.626Z,2.70
2019-02-08T21:02:59.655Z,2.62
2019-02-08T21:05:28.266Z,3.42
2019-02-08T21:07:55.694Z,3.87
2019-02-08T21:10:22.725Z,2.65
2019-02-08T21:12:49.888Z,3.70
2019-02-08T21:15:17.337Z,4.47
2019-02-08T21:17:44.324Z,3.75
2019-02-08T21:20:11.441Z,3.33
2019-02-08T21:22:38.589Z,3.92
2019-02-08T21:25:07.421Z,4.15
2019-02-08T21:27:34.434Z,3.75
2019-02-08T21:30:01.420Z,3.40
2019-02-08T21:32:28.445Z,3.15
2019-02-08T21:34:55.536Z,4.15
2019-02-08T21:37:22.591Z,4.55
2019-02-08T21:39:49.612Z,4.10
2019-02-08T21:42:16.786Z,4.15
2019-02-08T21:44:43.853Z,3.40
2019-02-08T21:47:10.834Z,3.77
2019-02-08T21:49:37.881Z,3.60
2019-02-08T21:52:05.185Z,3.45
2019-02-08T21:54:32.187Z,4.03
2019-02-08T21:56:59.380Z,4.33
2019-02-08T21:59:26.411Z,4.30
2019-02-08T22:01:53.401Z,3.92
2019-02-08T22:04:20.345Z,3.77
2019-02-08T22:06:47.251Z,4.17
2019-02-08T22:09:15.229Z,3.27
2019-02-08T22:11:42.274Z,3.20
2019-02-08T22:14:12.212Z,3.25
2019-02-08T22:16:39.209Z,4.20
2019-02-08T22:19:06.193Z,3.60
2019-02-08T22:21:33.258Z,4.47
2019-02-08T22:24:01.039Z,3.15
2019-02-08T22:26:28.081Z,3.10
2019-02-08T22:28:56.605Z,3.60
2019-02-08T22:31:23.613Z,3.50
2019-02-08T22:33:50.658Z,3.45
2019-02-08T22:36:17.810Z,3.40
2019-02-08T22:38:44.857Z,4.45
2019-02-08T22:41:11.843Z,3.27
2019-02-08T22:43:38.897Z,3.05
2019-02-08T22:46:06.063Z,3.05
2019-02-08T22:48:33.276Z,3.30
2019-02-08T22:51:00.300Z,5.00
2019-02-08T22:53:27.378Z,3.20
2019-02-08T22:55:54.453Z,3.87
2019-02-08T22:58:21.752Z,4.83
2019-02-08T23:01:14.317Z,3.80
2019-02-08T23:03:43.175Z,4.03
2019-02-08T23:06:11.214Z,3.67
2019-02-08T23:08:39.386Z,3.90
2019-02-08T23:11:06.771Z,3.77
2019-02-08T23:13:34.563Z,4.40
2019-02-08T23:16:01.723Z,4.10
2019-02-08T23:18:30.273Z,3.98
2019-02-08T23:20:57.284Z,3.60
2019-02-08T23:23:25.732Z,3.58
2019-02-08T23:25:52.846Z,5.08
2019-02-08T23:28:19.770Z,11.83
2019-02-08T23:30:46.928Z,11.75
2019-02-08T23:33:13.882Z,6.95
2019-02-08T23:35:43.214Z,6.30
2019-02-08T23:38:10.513Z,4.30
2019-02-08T23:40:38.035Z,4.17
2019-02-08T23:43:05.035Z,4.10
2019-02-08T23:45:31.998Z,3.87
2019-02-08T23:47:58.998Z,3.92
2019-02-08T23:50:26.029Z,3.90
2019-02-08T23:52:53.365Z,4.75
2019-02-08T23:55:20.708Z,9.80
2019-02-08T23:57:47.751Z,3.12
